sensor_id;sensor_type;location;lat;lon;timestamp;pressure;altitude;pressure_sealevel;temperature;humidity
9261;BME280;4667;42.726;23.252;2023-04-10T08:04:39;95310.91;;;11.98;100.00
9261;BME280;4667;42.726;23.252;2023-04-10T08:07:07;95310.81;;;12.23;100.00
9261;BME280;4667;42.726;23.252;2023-04-10T08:09:48;95306.00;;;12.55;100.00
9261;BME280;4667;42.726;23.252;2023-04-10T08:12:15;95310.19;;;12.74;100.00
9261;BME280;4667;42.726;23.252;2023-04-10T08:14:42;95310.44;;;12.90;100.00
9261;BME280;4667;42.726;23.252;2023-04-10T08:17:12;95303.69;;;13.16;100.00
9261;BME280;4667;42.726;23.252;2023-04-10T08:19:57;95299.16;;;13.43;96.57
9261;BME280;4667;42.726;23.252;2023-04-10T08:22:29;95294.88;;;13.46;89.01
9261;BME280;4667;42.726;23.252;2023-04-10T08:24:56;95312.47;;;13.34;83.85
9261;BME280;4667;42.726;23.252;2023-04-10T08:27:28;95302.53;;;13.10;84.92
9261;BME280;4667;42.726;23.252;2023-04-10T08:29:55;95299.97;;;13.40;88.47
9261;BME280;4667;42.726;23.252;2023-04-10T08:32:49;95294.66;;;14.01;78.81
9261;BME280;4667;42.726;23.252;2023-04-10T08:35:19;95300.53;;;14.00;74.42
9261;BME280;4667;42.726;23.252;2023-04-10T08:38:00;95299.09;;;14.22;71.26
9261;BME280;4667;42.726;23.252;2023-04-10T08:40:29;95298.59;;;13.97;66.12
9261;BME280;4667;42.726;23.252;2023-04-10T08:43:05;95302.09;;;13.97;65.37
9261;BME280;4667;42.726;23.252;2023-04-10T08:45:46;95301.84;;;13.84;69.99
9261;BME280;4667;42.726;23.252;2023-04-10T08:48:14;95297.31;;;13.74;68.57
9261;BME280;4667;42.726;23.252;2023-04-10T08:50:59;95292.47;;;13.52;67.55
9261;BME280;4667;42.726;23.252;2023-04-10T08:53:30;95292.94;;;13.43;70.20
9261;BME280;4667;42.726;23.252;2023-04-10T08:56:01;95292.84;;;13.54;69.56
9261;BME280;4667;42.726;23.252;2023-04-10T08:58:30;95289.88;;;13.37;70.17
9261;BME280;4667;42.726;23.252;2023-04-10T09:00:57;95299.13;;;13.47;66.42
9261;BME280;4667;42.726;23.252;2023-04-10T09:03:26;95297.31;;;13.74;64.82
9261;BME280;4667;42.726;23.252;2023-04-10T09:05:53;95298.00;;;14.16;66.01
9261;BME280;4667;42.726;23.252;2023-04-10T09:08:22;95288.78;;;14.40;61.33
9261;BME280;4667;42.726;23.252;2023-04-10T09:10:49;95292.22;;;14.44;60.63
9261;BME280;4667;42.726;23.252;2023-04-10T09:13:34;95284.28;;;14.23;60.64
9261;BME280;4667;42.726;23.252;2023-04-10T09:16:01;95292.19;;;14.14;60.76
9261;BME280;4667;42.726;23.252;2023-04-10T09:18:45;95281.94;;;13.91;59.46
9261;BME280;4667;42.726;23.252;2023-04-10T09:21:16;95288.50;;;13.60;60.62
9261;BME280;4667;42.726;23.252;2023-04-10T09:23:46;95283.81;;;13.60;62.73
9261;BME280;4667;42.726;23.252;2023-04-10T09:26:27;95287.00;;;13.55;62.03
9261;BME280;4667;42.726;23.252;2023-04-10T09:28:57;95285.50;;;13.47;63.65
9261;BME280;4667;42.726;23.252;2023-04-10T09:31:31;95279.53;;;13.22;64.78
9261;BME280;4667;42.726;23.252;2023-04-10T09:34:11;95284.75;;;13.46;65.51
9261;BME280;4667;42.726;23.252;2023-04-10T09:36:43;95280.25;;;13.70;70.33
9261;BME280;4667;42.726;23.252;2023-04-10T09:39:35;95264.22;;;14.10;67.38
9261;BME280;4667;42.726;23.252;2023-04-10T09:42:05;95279.00;;;14.09;67.38
9261;BME280;4667;42.726;23.252;2023-04-10T09:44:36;95275.31;;;13.92;66.23
9261;BME280;4667;42.726;23.252;2023-04-10T09:47:15;95279.09;;;13.68;65.86
9261;BME280;4667;42.726;23.252;2023-04-10T09:49:46;95270.72;;;13.85;65.99
9261;BME280;4667;42.726;23.252;2023-04-10T09:52:28;95273.50;;;13.82;66.12
9261;BME280;4667;42.726;23.252;2023-04-10T09:54:58;95275.66;;;13.60;66.12
9261;BME280;4667;42.726;23.252;2023-04-10T09:57:40;95272.34;;;13.42;68.20
9261;BME280;4667;42.726;23.252;2023-04-10T10:00:09;95277.25;;;13.58;66.60
9261;BME280;4667;42.726;23.252;2023-04-10T10:02:39;95274.81;;;13.70;68.26
9261;BME280;4667;42.726;23.252;2023-04-10T10:05:14;95274.94;;;13.56;65.99
9261;BME280;4667;42.726;23.252;2023-04-10T10:07:42;95276.06;;;13.59;66.04
9261;BME280;4667;42.726;23.252;2023-04-10T10:10:12;95271.63;;;13.75;68.56
9261;BME280;4667;42.726;23.252;2023-04-10T10:12:44;95272.81;;;13.71;69.40
9261;BME280;4667;42.726;23.252;2023-04-10T10:15:16;95273.94;;;14.11;66.99
9261;BME280;4667;42.726;23.252;2023-04-10T10:20:34;95268.59;;;13.70;71.89
9261;BME280;4667;42.726;23.252;2023-04-10T10:23:05;95253.75;;;13.74;66.46
9261;BME280;4667;42.726;23.252;2023-04-10T10:25:34;95258.41;;;13.74;74.19
9261;BME280;4667;42.726;23.252;2023-04-10T10:28:03;95258.09;;;13.68;72.51
9261;BME280;4667;42.726;23.252;2023-04-10T10:30:31;95250.13;;;13.51;67.86
9261;BME280;4667;42.726;23.252;2023-04-10T10:33:00;95249.28;;;13.57;66.09
9261;BME280;4667;42.726;23.252;2023-04-10T10:35:30;95256.34;;;13.51;67.49
9261;BME280;4667;42.726;23.252;2023-04-10T10:37:58;95245.28;;;13.65;67.23
9261;BME280;4667;42.726;23.252;2023-04-10T10:40:30;95247.41;;;13.51;68.48
9261;BME280;4667;42.726;23.252;2023-04-10T10:43:12;95231.28;;;13.67;69.15
9261;BME280;4667;42.726;23.252;2023-04-10T10:45:48;95224.47;;;14.43;66.70
9261;BME280;4667;42.726;23.252;2023-04-10T10:48:18;95222.84;;;14.76;61.49
9261;BME280;4667;42.726;23.252;2023-04-10T10:50:52;95218.06;;;14.83;59.89
9261;BME280;4667;42.726;23.252;2023-04-10T10:53:35;95220.81;;;15.03;57.51
9261;BME280;4667;42.726;23.252;2023-04-10T10:56:33;95215.00;;;15.67;56.11
9261;BME280;4667;42.726;23.252;2023-04-10T10:59:02;95209.41;;;16.50;54.16
9261;BME280;4667;42.726;23.252;2023-04-10T11:01:29;95210.97;;;16.67;52.44
9261;BME280;4667;42.726;23.252;2023-04-10T11:03:56;95206.34;;;16.64;50.61
9261;BME280;4667;42.726;23.252;2023-04-10T11:06:48;95202.94;;;17.08;51.44
9261;BME280;4667;42.726;23.252;2023-04-10T11:09:46;95189.66;;;17.23;52.93
9261;BME280;4667;42.726;23.252;2023-04-10T11:12:15;95189.34;;;16.89;49.33
9261;BME280;4667;42.726;23.252;2023-04-10T11:14:56;95193.84;;;17.11;48.79
9261;BME280;4667;42.726;23.252;2023-04-10T11:17:46;95198.59;;;16.95;48.94
9261;BME280;4667;42.726;23.252;2023-04-10T11:20:16;95191.72;;;16.87;49.18
9261;BME280;4667;42.726;23.252;2023-04-10T11:23:07;95183.38;;;17.39;51.30
9261;BME280;4667;42.726;23.252;2023-04-10T11:25:46;95188.81;;;17.84;48.51
9261;BME280;4667;42.726;23.252;2023-04-10T11:28:34;95192.19;;;18.17;47.38
9261;BME280;4667;42.726;23.252;2023-04-10T11:31:20;95187.84;;;18.70;45.65
9261;BME280;4667;42.726;23.252;2023-04-10T11:33:52;95183.34;;;18.89;46.36
9261;BME280;4667;42.726;23.252;2023-04-10T11:36:28;95183.44;;;18.98;44.59
9261;BME280;4667;42.726;23.252;2023-04-10T11:38:56;95178.47;;;19.52;44.31
9261;BME280;4667;42.726;23.252;2023-04-10T11:41:28;95167.91;;;19.51;43.94
9261;BME280;4667;42.726;23.252;2023-04-10T11:43:55;95171.38;;;19.86;42.17
9261;BME280;4667;42.726;23.252;2023-04-10T11:46:40;95176.34;;;19.78;42.36
9261;BME280;4667;42.726;23.252;2023-04-10T11:49:09;95173.94;;;19.59;42.69
9261;BME280;4667;42.726;23.252;2023-04-10T11:51:36;95171.88;;;19.37;42.98
9261;BME280;4667;42.726;23.252;2023-04-10T11:54:06;95175.22;;;19.32;42.52
9261;BME280;4667;42.726;23.252;2023-04-10T11:56:34;95179.09;;;19.22;42.04
9261;BME280;4667;42.726;23.252;2023-04-10T11:59:01;95179.06;;;18.75;42.97
9261;BME280;4667;42.726;23.252;2023-04-10T12:01:32;95167.97;;;18.28;43.97
9261;BME280;4667;42.726;23.252;2023-04-10T12:04:00;95167.56;;;17.88;44.24
9261;BME280;4667;42.726;23.252;2023-04-10T12:06:28;95161.97;;;17.50;47.19
9261;BME280;4667;42.726;23.252;2023-04-10T12:08:55;95161.22;;;16.72;45.85
9261;BME280;4667;42.726;23.252;2023-04-10T12:11:24;95162.66;;;16.44;49.19
9261;BME280;4667;42.726;23.252;2023-04-10T12:13:56;95156.06;;;15.70;48.44
9261;BME280;4667;42.726;23.252;2023-04-10T12:16:26;95159.44;;;15.58;52.33
9261;BME280;4667;42.726;23.252;2023-04-10T12:18:54;95159.34;;;14.75;56.79
9261;BME280;4667;42.726;23.252;2023-04-10T12:21:22;95171.06;;;14.49;60.95
9261;BME280;4667;42.726;23.252;2023-04-10T12:23:50;95174.28;;;14.13;64.65
9261;BME280;4667;42.726;23.252;2023-04-10T12:26:17;95175.16;;;13.76;70.16
9261;BME280;4667;42.726;23.252;2023-04-10T12:28:50;95174.38;;;13.45;81.43
9261;BME280;4667;42.726;23.252;2023-04-10T12:31:19;95168.16;;;13.45;86.62
9261;BME280;4667;42.726;23.252;2023-04-10T12:33:52;95183.66;;;13.11;90.26
9261;BME280;4667;42.726;23.252;2023-04-10T12:36:25;95191.84;;;12.59;97.90
9261;BME280;4667;42.726;23.252;2023-04-10T12:38:54;95188.16;;;12.35;100.00
9261;BME280;4667;42.726;23.252;2023-04-10T12:41:23;95204.00;;;11.78;100.00
9261;BME280;4667;42.726;23.252;2023-04-10T12:43:52;95213.31;;;11.66;100.00
9261;BME280;4667;42.726;23.252;2023-04-10T12:46:24;95225.13;;;10.96;100.00
9261;BME280;4667;42.726;23.252;2023-04-10T12:49:10;95225.13;;;10.68;100.00
9261;BME280;4667;42.726;23.252;2023-04-10T12:51:47;95224.34;;;10.42;100.00
9261;BME280;4667;42.726;23.252;2023-04-10T12:54:29;95226.56;;;10.08;100.00
9261;BME280;4667;42.726;23.252;2023-04-10T12:56:56;95217.25;;;9.99;100.00
9261;BME280;4667;42.726;23.252;2023-04-10T12:59:23;95211.41;;;9.75;100.00
9261;BME280;4667;42.726;23.252;2023-04-10T13:01:50;95207.16;;;9.74;100.00
9261;BME280;4667;42.726;23.252;2023-04-10T13:04:20;95188.22;;;9.71;100.00
9261;BME280;4667;42.726;23.252;2023-04-10T13:06:49;95187.84;;;9.79;100.00
9261;BME280;4667;42.726;23.252;2023-04-10T13:09:17;95180.13;;;9.81;100.00
9261;BME280;4667;42.726;23.252;2023-04-10T13:11:47;95174.31;;;9.79;100.00
9261;BME280;4667;42.726;23.252;2023-04-10T13:14:15;95166.19;;;9.79;100.00
9261;BME280;4667;42.726;23.252;2023-04-10T13:16:42;95163.50;;;9.90;100.00
9261;BME280;4667;42.726;23.252;2023-04-10T13:19:09;95155.09;;;10.16;100.00
9261;BME280;4667;42.726;23.252;2023-04-10T13:21:37;95156.25;;;10.51;100.00
9261;BME280;4667;42.726;23.252;2023-04-10T13:24:06;95150.41;;;10.74;100.00
9261;BME280;4667;42.726;23.252;2023-04-10T13:26:33;95145.88;;;11.65;100.00
9261;BME280;4667;42.726;23.252;2023-04-10T13:29:00;95131.38;;;12.51;100.00
9261;BME280;4667;42.726;23.252;2023-04-10T13:31:27;95135.91;;;13.43;100.00
9261;BME280;4667;42.726;23.252;2023-04-10T13:33:54;95130.28;;;14.15;100.00
9261;BME280;4667;42.726;23.252;2023-04-10T13:36:22;95116.50;;;14.76;100.00
9261;BME280;4667;42.726;23.252;2023-04-10T13:38:49;95118.72;;;15.43;100.00
9261;BME280;4667;42.726;23.252;2023-04-10T13:41:18;95111.78;;;16.14;100.00
9261;BME280;4667;42.726;23.252;2023-04-10T13:43:46;95115.88;;;16.39;89.86
9261;BME280;4667;42.726;23.252;2023-04-10T13:46:13;95114.44;;;16.18;89.29
9261;BME280;4667;42.726;23.252;2023-04-10T13:48:40;95114.13;;;16.48;77.61
9261;BME280;4667;42.726;23.252;2023-04-10T13:51:09;95115.06;;;16.42;77.95
9261;BME280;4667;42.726;23.252;2023-04-10T13:53:37;95107.47;;;16.49;80.52
9261;BME280;4667;42.726;23.252;2023-04-10T13:56:19;95116.94;;;17.22;71.34
9261;BME280;4667;42.726;23.252;2023-04-10T13:58:46;95116.13;;;17.38;66.94
9261;BME280;4667;42.726;23.252;2023-04-10T14:01:24;95113.50;;;17.47;65.28
9261;BME280;4667;42.726;23.252;2023-04-10T14:03:51;95111.50;;;17.06;65.50
9261;BME280;4667;42.726;23.252;2023-04-10T14:06:28;95106.44;;;17.21;65.55
9261;BME280;4667;42.726;23.252;2023-04-10T14:09:00;95107.31;;;16.72;68.83
9261;BME280;4667;42.726;23.252;2023-04-10T14:14:09;95102.22;;;16.22;68.18
9261;BME280;4667;42.726;23.252;2023-04-10T14:16:49;95103.88;;;15.84;73.46
9261;BME280;4667;42.726;23.252;2023-04-10T14:19:17;95100.56;;;15.92;72.31
9261;BME280;4667;42.726;23.252;2023-04-10T14:22:09;95105.03;;;16.03;66.14
9261;BME280;4667;42.726;23.252;2023-04-10T14:24:51;95101.41;;;15.89;64.14
9261;BME280;4667;42.726;23.252;2023-04-10T14:27:19;95104.56;;;15.88;70.02
9261;BME280;4667;42.726;23.252;2023-04-10T14:29:47;95102.72;;;15.65;68.52
9261;BME280;4667;42.726;23.252;2023-04-10T14:32:14;95098.38;;;15.28;71.64
9261;BME280;4667;42.726;23.252;2023-04-10T14:34:46;95110.53;;;15.43;72.71
9261;BME280;4667;42.726;23.252;2023-04-10T14:37:20;95109.38;;;15.25;68.72
9261;BME280;4667;42.726;23.252;2023-04-10T14:39:52;95115.66;;;14.55;71.05
9261;BME280;4667;42.726;23.252;2023-04-10T14:42:20;95106.38;;;14.26;72.05
9261;BME280;4667;42.726;23.252;2023-04-10T14:44:49;95115.59;;;14.09;72.67
9261;BME280;4667;42.726;23.252;2023-04-10T14:47:17;95121.53;;;13.73;73.77
9261;BME280;4667;42.726;23.252;2023-04-10T14:49:50;95126.34;;;13.62;75.05
9261;BME280;4667;42.726;23.252;2023-04-10T14:52:17;95115.47;;;13.62;79.19
9261;BME280;4667;42.726;23.252;2023-04-10T14:54:45;95130.53;;;13.40;84.48
9261;BME280;4667;42.726;23.252;2023-04-10T14:57:26;95123.97;;;13.34;91.15
9261;BME280;4667;42.726;23.252;2023-04-10T14:59:56;95121.50;;;13.13;92.29
9261;BME280;4667;42.726;23.252;2023-04-10T15:02:25;95118.81;;;13.05;100.00
9261;BME280;4667;42.726;23.252;2023-04-10T15:04:54;95112.66;;;13.01;100.00
9261;BME280;4667;42.726;23.252;2023-04-10T15:07:35;95107.84;;;12.75;100.00
9261;BME280;4667;42.726;23.252;2023-04-10T15:10:16;95112.16;;;12.73;100.00
9261;BME280;4667;42.726;23.252;2023-04-10T15:12:57;95109.22;;;12.56;100.00
9261;BME280;4667;42.726;23.252;2023-04-10T15:18:38;95110.94;;;12.36;100.00
9261;BME280;4667;42.726;23.252;2023-04-10T15:21:05;95111.13;;;12.15;99.29
9261;BME280;4667;42.726;23.252;2023-04-10T15:23:48;95106.81;;;12.21;98.44
9261;BME280;4667;42.726;23.252;2023-04-10T15:26:30;95112.53;;;12.30;100.00
9261;BME280;4667;42.726;23.252;2023-04-10T15:29:06;95105.13;;;12.38;100.00
9261;BME280;4667;42.726;23.252;2023-04-10T15:31:34;95105.06;;;12.41;100.00
9261;BME280;4667;42.726;23.252;2023-04-10T15:34:19;95106.22;;;12.44;100.00
9261;BME280;4667;42.726;23.252;2023-04-10T15:36:46;95110.91;;;12.40;100.00
9261;BME280;4667;42.726;23.252;2023-04-10T15:39:18;95101.63;;;12.37;98.86
9261;BME280;4667;42.726;23.252;2023-04-10T15:41:45;95097.53;;;12.11;97.29
9261;BME280;4667;42.726;23.252;2023-04-10T15:44:14;95099.84;;;12.16;98.61
9261;BME280;4667;42.726;23.252;2023-04-10T15:46:47;95093.56;;;12.26;100.00
9261;BME280;4667;42.726;23.252;2023-04-10T15:49:32;95091.19;;;12.28;100.00
9261;BME280;4667;42.726;23.252;2023-04-10T15:52:00;95090.03;;;12.33;96.92
9261;BME280;4667;42.726;23.252;2023-04-10T15:54:31;95085.72;;;12.36;95.29
9261;BME280;4667;42.726;23.252;2023-04-10T15:57:25;95084.94;;;12.35;100.00
9261;BME280;4667;42.726;23.252;2023-04-10T16:00:28;95090.75;;;12.37;100.00
9261;BME280;4667;42.726;23.252;2023-04-10T16:03:09;95090.31;;;12.42;100.00
9261;BME280;4667;42.726;23.252;2023-04-10T16:05:42;95096.16;;;12.41;100.00
9261;BME280;4667;42.726;23.252;2023-04-10T16:08:11;95093.53;;;12.30;100.00
9261;BME280;4667;42.726;23.252;2023-04-10T16:10:51;95085.75;;;12.32;100.00
9261;BME280;4667;42.726;23.252;2023-04-10T16:13:34;95094.81;;;12.15;97.29
9261;BME280;4667;42.726;23.252;2023-04-10T16:16:15;95092.94;;;12.08;93.49
9261;BME280;4667;42.726;23.252;2023-04-10T16:28:58;95087.81;;;12.17;91.85
9261;BME280;4667;42.726;23.252;2023-04-10T16:31:28;95092.84;;;12.19;90.31
9261;BME280;4667;42.726;23.252;2023-04-10T16:33:55;95098.28;;;12.19;91.76
9261;BME280;4667;42.726;23.252;2023-04-10T16:49:28;95098.53;;;11.83;100.00
9261;BME280;4667;42.726;23.252;2023-04-10T16:51:56;95107.09;;;11.78;96.70
9261;BME280;4667;42.726;23.252;2023-04-10T16:54:23;95106.31;;;11.74;97.88
9261;BME280;4667;42.726;23.252;2023-04-10T16:56:50;95114.19;;;11.44;100.00
9261;BME280;4667;42.726;23.252;2023-04-10T16:59:18;95119.00;;;11.08;100.00
9261;BME280;4667;42.726;23.252;2023-04-10T17:01:59;95127.63;;;10.60;100.00
9261;BME280;4667;42.726;23.252;2023-04-10T17:04:29;95120.25;;;10.68;100.00
9261;BME280;4667;42.726;23.252;2023-04-10T17:06:58;95133.06;;;10.46;100.00
9261;BME280;4667;42.726;23.252;2023-04-10T17:10:01;95132.28;;;10.25;100.00
9261;BME280;4667;42.726;23.252;2023-04-10T17:12:43;95131.84;;;10.15;100.00
9261;BME280;4667;42.726;23.252;2023-04-10T17:15:11;95137.63;;;9.82;100.00
9261;BME280;4667;42.726;23.252;2023-04-10T17:17:48;95131.03;;;9.79;100.00
9261;BME280;4667;42.726;23.252;2023-04-10T17:23:42;95145.13;;;9.20;100.00
9261;BME280;4667;42.726;23.252;2023-04-10T17:26:13;95149.72;;;9.05;100.00
9261;BME280;4667;42.726;23.252;2023-04-10T17:28:40;95151.31;;;9.20;100.00
9261;BME280;4667;42.726;23.252;2023-04-10T17:31:15;95157.09;;;9.15;100.00
9261;BME280;4667;42.726;23.252;2023-04-10T17:33:51;95168.38;;;9.42;100.00
9261;BME280;4667;42.726;23.252;2023-04-10T17:36:20;95177.72;;;9.52;100.00
9261;BME280;4667;42.726;23.252;2023-04-10T17:39:03;95176.16;;;9.54;100.00
9261;BME280;4667;42.726;23.252;2023-04-10T17:41:51;95163.34;;;9.37;100.00
9261;BME280;4667;42.726;23.252;2023-04-10T17:49:35;95173.31;;;9.19;100.00
9261;BME280;4667;42.726;23.252;2023-04-10T17:55:01;95179.06;;;9.14;100.00
9261;BME280;4667;42.726;23.252;2023-04-10T17:57:42;95178.28;;;9.10;100.00
9261;BME280;4667;42.726;23.252;2023-04-10T18:00:12;95178.66;;;9.05;100.00
9261;BME280;4667;42.726;23.252;2023-04-10T18:03:09;95170.09;;;8.92;100.00
9261;BME280;4667;42.726;23.252;2023-04-10T18:05:49;95170.69;;;8.68;100.00
9261;BME280;4667;42.726;23.252;2023-04-10T18:14:37;95190.50;;;8.89;100.00
9261;BME280;4667;42.726;23.252;2023-04-10T18:17:07;95195.56;;;8.94;100.00
9261;BME280;4667;42.726;23.252;2023-04-10T18:19:49;95195.91;;;8.86;100.00
9261;BME280;4667;42.726;23.252;2023-04-10T18:22:20;95192.78;;;8.80;100.00
9261;BME280;4667;42.726;23.252;2023-04-10T18:25:07;95196.84;;;8.56;100.00
9261;BME280;4667;42.726;23.252;2023-04-10T18:28:09;95196.44;;;8.58;100.00
9261;BME280;4667;42.726;23.252;2023-04-10T18:30:44;95200.34;;;8.64;100.00
9261;BME280;4667;42.726;23.252;2023-04-10T18:33:11;95195.78;;;8.68;100.00
9261;BME280;4667;42.726;23.252;2023-04-10T18:35:45;95196.44;;;8.58;100.00
9261;BME280;4667;42.726;23.252;2023-04-10T18:38:14;95184.19;;;8.68;100.00
9261;BME280;4667;42.726;23.252;2023-04-10T18:41:00;95182.59;;;8.59;100.00
9261;BME280;4667;42.726;23.252;2023-04-10T18:43:28;95177.97;;;8.60;100.00
9261;BME280;4667;42.726;23.252;2023-04-10T18:46:12;95185.81;;;8.79;100.00
9261;BME280;4667;42.726;23.252;2023-04-10T18:48:52;95184.25;;;8.78;100.00
9261;BME280;4667;42.726;23.252;2023-04-10T18:51:23;95189.59;;;8.71;100.00
9261;BME280;4667;42.726;23.252;2023-04-10T18:53:50;95185.03;;;8.75;100.00
9261;BME280;4667;42.726;23.252;2023-04-10T18:56:20;95200.53;;;8.85;100.00
9261;BME280;4667;42.726;23.252;2023-04-10T18:58:47;95205.56;;;8.87;100.00
9261;BME280;4667;42.726;23.252;2023-04-10T19:06:49;95184.09;;;9.15;100.00
9261;BME280;4667;42.726;23.252;2023-04-10T19:09:20;95182.19;;;9.16;100.00
9261;BME280;4667;42.726;23.252;2023-04-10T19:12:01;95186.34;;;9.02;100.00
9261;BME280;4667;42.726;23.252;2023-04-10T19:14:43;95184.38;;;8.96;100.00
9261;BME280;4667;42.726;23.252;2023-04-10T19:17:36;95193.44;;;8.63;100.00
9261;BME280;4667;42.726;23.252;2023-04-10T19:20:04;95179.66;;;8.82;100.00
9261;BME280;4667;42.726;23.252;2023-04-10T19:22:41;95185.81;;;8.79;100.00
9261;BME280;4667;42.726;23.252;2023-04-10T19:25:32;95183.28;;;8.49;100.00
9261;BME280;4667;42.726;23.252;2023-04-10T19:28:00;95178.44;;;8.69;100.00
9261;BME280;4667;42.726;23.252;2023-04-10T19:30:30;95173.88;;;8.80;100.00
9261;BME280;4667;42.726;23.252;2023-04-10T19:32:57;95183.41;;;8.64;100.00
9261;BME280;4667;42.726;23.252;2023-04-10T19:35:38;95186.13;;;8.67;100.00
9261;BME280;4667;42.726;23.252;2023-04-10T19:38:08;95194.22;;;8.71;100.00
9261;BME280;4667;42.726;23.252;2023-04-10T19:40:49;95190.69;;;8.59;100.00
